createdAt,value
2023-02-28T00:01:37.995Z,4.77
2023-02-28T00:04:06.748Z,4.03
2023-02-28T00:06:35.317Z,5.20
2023-02-28T00:09:04.282Z,5.27
2023-02-28T00:11:32.807Z,5.60
2023-02-28T00:14:02.920Z,3.90
2023-02-28T00:16:31.665Z,6.13
2023-02-28T00:19:00.321Z,6.00
2023-02-28T00:21:29.265Z,8.00
2023-02-28T00:23:58.066Z,8.00
2023-02-28T00:26:26.625Z,5.57
2023-02-28T00:28:55.392Z,5.13
2023-02-28T00:31:26.712Z,7.57
2023-02-28T00:33:55.457Z,7.30
2023-02-28T00:36:24.078Z,7.13
2023-02-28T00:38:52.714Z,8.33
2023-02-28T00:41:21.563Z,6.23
2023-02-28T00:43:50.192Z,8.27
2023-02-28T00:46:18.737Z,9.80
2023-02-28T00:48:48.658Z,5.27
2023-02-28T00:51:17.143Z,6.57
2023-02-28T00:53:45.693Z,6.80
2023-02-28T00:56:14.666Z,5.40
2023-02-28T00:58:43.338Z,9.23
2023-02-28T01:01:11.979Z,4.43
2023-02-28T01:03:40.594Z,4.93
2023-02-28T01:06:10.573Z,5.00
2023-02-28T01:08:40.657Z,6.53
2023-02-28T01:11:11.097Z,6.50
2023-02-28T01:13:42.253Z,5.53
2023-02-28T01:16:10.797Z,4.47
2023-02-28T01:18:39.743Z,5.07
2023-02-28T01:21:10.753Z,5.77
2023-02-28T01:23:40.552Z,4.83
2023-02-28T01:26:10.650Z,5.67
2023-02-28T01:28:42.385Z,10.33
2023-02-28T01:31:11.962Z,4.27
2023-02-28T01:33:41.448Z,5.80
2023-02-28T01:36:13.854Z,5.07
2023-02-28T01:38:42.983Z,3.63
2023-02-28T01:41:17.474Z,8.60
2023-02-28T01:44:07.876Z,7.20
2023-02-28T01:46:37.731Z,7.30
2023-02-28T01:49:10.911Z,5.33
2023-02-28T01:51:46.602Z,5.03
2023-02-28T01:54:18.748Z,3.93
2023-02-28T01:56:55.305Z,5.50
2023-02-28T01:59:28.971Z,3.53
2023-02-28T02:01:57.889Z,4.73
2023-02-28T02:04:34.452Z,6.07
2023-02-28T02:07:05.262Z,7.30
2023-02-28T02:09:33.851Z,8.07
2023-02-28T02:12:10.214Z,4.37
2023-02-28T02:14:53.029Z,5.17
2023-02-28T02:17:33.074Z,5.13
2023-02-28T02:20:35.904Z,4.83
2023-02-28T02:23:35.084Z,4.40
2023-02-28T02:26:34.132Z,3.80
2023-02-28T02:29:40.173Z,5.37
2023-02-28T02:32:30.036Z,6.47
2023-02-28T02:35:10.162Z,5.87
2023-02-28T02:37:44.706Z,2.70
2023-02-28T02:40:16.505Z,4.40
2023-02-28T02:42:53.072Z,6.53
2023-02-28T02:45:28.243Z,3.97
2023-02-28T02:48:00.710Z,4.23
2023-02-28T02:50:35.423Z,7.73
2023-02-28T02:53:06.002Z,5.13
2023-02-28T02:55:40.996Z,3.53
2023-02-28T02:58:15.192Z,5.70
2023-02-28T03:00:48.488Z,5.10
2023-02-28T03:03:21.717Z,6.63
2023-02-28T03:05:53.145Z,7.20
2023-02-28T03:08:21.841Z,4.07
2023-02-28T03:10:52.976Z,4.13
2023-02-28T03:13:54.009Z,4.23
2023-02-28T03:16:40.797Z,4.80
2023-02-28T03:19:25.739Z,4.13
2023-02-28T03:22:10.116Z,6.03
2023-02-28T03:24:47.679Z,5.40
2023-02-28T03:27:23.597Z,4.83
2023-02-28T03:29:58.432Z,6.30
2023-02-28T03:32:31.706Z,5.90
2023-02-28T03:35:06.976Z,3.27
2023-02-28T03:37:42.641Z,6.37
2023-02-28T03:40:15.998Z,5.83
2023-02-28T03:42:50.227Z,6.40
2023-02-28T03:45:23.464Z,4.70
2023-02-28T03:47:55.113Z,6.33
2023-02-28T03:50:26.667Z,6.63
2023-02-28T03:53:05.696Z,4.50
2023-02-28T03:55:40.542Z,5.73
2023-02-28T03:58:21.714Z,6.60
2023-02-28T04:00:54.668Z,5.07
2023-02-28T04:03:24.316Z,5.37
2023-02-28T04:05:55.240Z,8.20
2023-02-28T04:08:25.492Z,7.73
2023-02-28T04:10:58.331Z,5.97
2023-02-28T04:13:26.887Z,4.17
2023-02-28T04:15:55.507Z,6.97
2023-02-28T04:18:24.166Z,6.27
2023-02-28T04:20:52.708Z,6.33
2023-02-28T04:23:21.321Z,4.83
2023-02-28T04:25:52.142Z,5.40
2023-02-28T04:28:20.732Z,6.13
2023-02-28T04:30:49.271Z,3.93
2023-02-28T04:33:17.959Z,7.20
2023-02-28T04:35:46.554Z,7.13
2023-02-28T04:38:15.222Z,7.23
2023-02-28T04:40:43.715Z,4.77
2023-02-28T04:43:13.608Z,4.83
2023-02-28T04:45:42.289Z,4.57
2023-02-28T04:48:10.810Z,7.47
2023-02-28T04:50:39.332Z,4.80
2023-02-28T04:53:07.979Z,7.73
2023-02-28T04:55:36.609Z,5.30
2023-02-28T04:58:05.265Z,5.20
2023-02-28T05:00:35.259Z,5.93
2023-02-28T05:03:03.817Z,8.13
2023-02-28T05:05:32.460Z,5.53
2023-02-28T05:08:01.149Z,8.50
2023-02-28T05:10:29.867Z,6.03
2023-02-28T05:12:58.409Z,6.07
2023-02-28T05:15:26.965Z,5.53
2023-02-28T05:17:56.819Z,5.97
2023-02-28T05:20:25.424Z,5.30
2023-02-28T05:22:54.101Z,5.27
2023-02-28T05:25:23.741Z,5.03
2023-02-28T05:27:52.316Z,6.30
2023-02-28T05:30:21.001Z,6.07
2023-02-28T05:32:53.602Z,6.67
2023-02-28T05:35:23.766Z,4.47
2023-02-28T05:37:52.294Z,6.20
2023-02-28T05:40:21.606Z,6.43
2023-02-28T05:42:52.338Z,5.07
2023-02-28T05:45:20.934Z,6.17
2023-02-28T05:47:49.434Z,7.87
2023-02-28T05:50:18.267Z,5.57
2023-02-28T05:52:51.509Z,7.80
2023-02-28T05:55:20.145Z,4.90
2023-02-28T05:57:48.725Z,4.33
2023-02-28T06:00:18.776Z,4.83
2023-02-28T06:02:47.430Z,3.90
2023-02-28T06:05:18.594Z,8.77
2023-02-28T06:07:48.530Z,5.60
2023-02-28T06:10:17.379Z,5.87
2023-02-28T06:12:45.994Z,5.80
2023-02-28T06:15:16.174Z,5.30
2023-02-28T06:17:45.229Z,8.67
2023-02-28T06:20:14.761Z,7.93
2023-02-28T06:22:43.769Z,6.60
2023-02-28T06:25:13.715Z,7.50
2023-02-28T06:27:42.239Z,6.70
2023-02-28T06:30:11.968Z,5.17
2023-02-28T06:32:40.644Z,7.17
2023-02-28T06:35:10.004Z,6.00
2023-02-28T06:37:41.637Z,6.90
2023-02-28T06:40:14.749Z,6.40
2023-02-28T06:42:43.989Z,6.50
2023-02-28T06:45:13.416Z,10.33
2023-02-28T06:47:43.441Z,9.77
2023-02-28T06:50:13.891Z,6.20
2023-02-28T06:52:42.487Z,5.83
2023-02-28T06:55:12.866Z,5.97
2023-02-28T06:57:41.624Z,6.13
2023-02-28T07:00:12.178Z,6.17
2023-02-28T07:02:40.806Z,5.27
2023-02-28T07:05:10.183Z,5.87
2023-02-28T07:07:41.481Z,6.77
2023-02-28T07:10:11.813Z,7.57
2023-02-28T07:12:41.863Z,8.53
2023-02-28T07:15:11.713Z,7.47
2023-02-28T07:17:40.420Z,8.10
2023-02-28T07:20:10.143Z,8.43
2023-02-28T07:22:39.610Z,8.13
2023-02-28T07:25:08.937Z,7.23
2023-02-28T07:27:37.500Z,11.00
2023-02-28T07:30:09.297Z,8.03
2023-02-28T07:32:38.874Z,8.70
2023-02-28T07:35:08.553Z,6.90
2023-02-28T07:37:37.594Z,6.67
2023-02-28T07:40:09.351Z,5.60
2023-02-28T07:42:38.817Z,5.43
2023-02-28T07:45:12.559Z,7.50
2023-02-28T07:47:41.477Z,8.00
2023-02-28T07:50:12.192Z,5.47
2023-02-28T07:52:41.711Z,10.13
2023-02-28T07:55:11.709Z,5.97
2023-02-28T07:57:40.327Z,8.87
2023-02-28T08:00:13.659Z,8.60
2023-02-28T08:02:45.399Z,6.83
2023-02-28T08:05:14.024Z,5.03
2023-02-28T08:07:42.757Z,4.43
2023-02-28T08:10:12.331Z,7.40
2023-02-28T08:12:41.013Z,6.87
2023-02-28T08:15:11.994Z,5.83
2023-02-28T08:17:40.680Z,5.30
2023-02-28T08:20:11.311Z,5.27
2023-02-28T08:22:39.906Z,5.47
2023-02-28T08:25:09.425Z,5.97
2023-02-28T08:27:38.518Z,5.93
2023-02-28T08:30:08.522Z,4.50
2023-02-28T08:32:38.631Z,5.07
2023-02-28T08:35:10.055Z,5.67
2023-02-28T08:37:38.792Z,5.87
2023-02-28T08:40:09.140Z,7.20
2023-02-28T08:42:38.159Z,4.07
2023-02-28T08:45:07.898Z,4.00
2023-02-28T08:47:37.751Z,4.07
2023-02-28T08:50:07.582Z,5.17
2023-02-28T08:52:36.329Z,4.10
2023-02-28T08:55:05.123Z,5.30
2023-02-28T08:57:34.250Z,3.13
2023-02-28T09:00:05.328Z,3.33
2023-02-28T09:02:34.199Z,3.07
2023-02-28T09:05:04.714Z,5.90
2023-02-28T09:07:33.277Z,6.97
2023-02-28T09:10:01.901Z,4.80
2023-02-28T09:12:35.462Z,4.57
2023-02-28T09:15:04.546Z,5.10
2023-02-28T09:17:33.185Z,3.10
2023-02-28T09:20:01.795Z,3.33
2023-02-28T09:22:31.782Z,5.07
2023-02-28T09:25:00.280Z,3.85
2023-02-28T09:27:28.851Z,4.15
2023-02-28T09:29:57.465Z,3.22
2023-02-28T09:32:26.178Z,3.78
2023-02-28T09:34:54.960Z,3.40
2023-02-28T09:37:24.244Z,4.25
2023-02-28T09:39:54.121Z,4.20
2023-02-28T09:42:27.469Z,3.40
2023-02-28T09:44:57.503Z,3.47
2023-02-28T09:47:31.817Z,3.08
2023-02-28T09:50:19.737Z,4.63
2023-02-28T09:52:51.330Z,4.82
2023-02-28T09:55:32.749Z,3.28
2023-02-28T09:58:04.191Z,3.10
2023-02-28T10:00:37.194Z,3.70
2023-02-28T10:03:24.530Z,4.45
2023-02-28T10:05:58.400Z,4.75
2023-02-28T10:08:31.309Z,4.70
2023-02-28T10:11:05.332Z,4.80
2023-02-28T10:13:36.834Z,4.75
2023-02-28T10:16:10.289Z,3.83
2023-02-28T10:18:46.928Z,5.07
2023-02-28T10:21:23.085Z,2.47
2023-02-28T10:23:55.198Z,2.72
2023-02-28T10:26:28.803Z,2.83
2023-02-28T10:28:57.724Z,5.88
2023-02-28T10:31:26.559Z,4.35
2023-02-28T10:33:55.270Z,5.18
2023-02-28T10:36:24.563Z,3.55
2023-02-28T10:38:53.270Z,3.17
2023-02-28T10:41:35.625Z,3.50
2023-02-28T10:44:16.853Z,2.67
2023-02-28T10:46:45.780Z,2.80
2023-02-28T10:49:22.904Z,3.22
2023-02-28T10:51:54.744Z,3.63
2023-02-28T10:54:26.959Z,3.55
2023-02-28T10:57:18.716Z,6.32
2023-02-28T10:59:52.204Z,3.08
2023-02-28T11:02:36.833Z,2.35
2023-02-28T11:05:26.016Z,5.13
2023-02-28T11:07:56.130Z,4.68
2023-02-28T11:10:28.203Z,3.75
2023-02-28T11:13:00.971Z,3.70
2023-02-28T11:15:31.911Z,2.85
2023-02-28T11:18:03.108Z,4.53
2023-02-28T11:20:34.290Z,4.72
2023-02-28T11:23:05.272Z,3.63
2023-02-28T11:25:35.774Z,3.45
2023-02-28T11:28:07.700Z,4.55
2023-02-28T11:30:39.010Z,5.03
2023-02-28T11:33:24.588Z,3.47
2023-02-28T11:35:55.275Z,4.88
2023-02-28T11:38:24.014Z,3.47
2023-02-28T11:41:07.093Z,2.90
2023-02-28T11:43:53.246Z,3.35
2023-02-28T11:46:32.456Z,3.42
2023-02-28T11:49:08.547Z,3.53
2023-02-28T11:51:48.975Z,7.18
2023-02-28T11:54:33.862Z,3.67
2023-02-28T11:57:08.894Z,3.20
2023-02-28T11:59:55.629Z,4.38
2023-02-28T12:02:31.012Z,5.68
2023-02-28T12:05:13.735Z,3.30
2023-02-28T12:07:52.902Z,4.78
2023-02-28T12:10:26.084Z,3.92
2023-02-28T12:13:15.003Z,3.15
2023-02-28T12:16:19.592Z,3.13
2023-02-28T12:19:03.686Z,6.22
2023-02-28T12:21:41.618Z,5.10
2023-02-28T12:24:37.245Z,3.42
2023-02-28T12:27:09.597Z,4.90
2023-02-28T12:29:46.863Z,3.53
2023-02-28T12:32:21.009Z,3.90
2023-02-28T12:34:53.265Z,4.13
2023-02-28T12:37:27.407Z,3.13
2023-02-28T12:40:06.474Z,4.05
2023-02-28T12:42:41.870Z,3.05
2023-02-28T12:45:15.433Z,4.78
2023-02-28T12:47:48.908Z,3.15
2023-02-28T12:50:18.678Z,3.47
2023-02-28T12:52:59.999Z,3.30
2023-02-28T12:55:37.507Z,3.63
2023-02-28T12:58:15.891Z,3.83
2023-02-28T13:00:58.204Z,4.10
2023-02-28T13:03:54.884Z,11.07
2023-02-28T13:06:41.123Z,6.80
2023-02-28T13:09:15.675Z,4.00
2023-02-28T13:11:46.904Z,4.40
2023-02-28T13:14:28.484Z,2.88
2023-02-28T13:17:00.545Z,3.63
2023-02-28T13:19:33.000Z,3.95
2023-02-28T13:22:02.743Z,3.97
2023-02-28T13:24:48.177Z,3.05
2023-02-28T13:27:40.228Z,3.30
2023-02-28T13:30:46.221Z,3.92
2023-02-28T13:33:29.064Z,4.47
2023-02-28T13:36:25.057Z,5.13
2023-02-28T13:38:56.327Z,3.17
2023-02-28T13:41:47.344Z,5.60
2023-02-28T13:44:18.735Z,3.83
2023-02-28T13:47:25.580Z,3.40
2023-02-28T13:49:55.105Z,3.55
2023-02-28T13:52:27.017Z,3.42
2023-02-28T13:55:17.110Z,3.92
2023-02-28T13:57:56.662Z,3.75
2023-02-28T14:00:37.495Z,2.95
2023-02-28T14:03:25.142Z,3.30
2023-02-28T14:06:26.137Z,3.67
2023-02-28T14:09:00.691Z,3.80
2023-02-28T14:11:35.105Z,4.43
2023-02-28T14:14:05.498Z,3.95
2023-02-28T14:16:43.338Z,4.47
2023-02-28T14:19:16.224Z,4.50
2023-02-28T14:22:02.675Z,4.68
2023-02-28T14:24:52.591Z,4.93
2023-02-28T14:27:35.776Z,4.30
2023-02-28T14:30:38.949Z,4.53
2023-02-28T14:33:23.014Z,3.78
2023-02-28T14:36:09.261Z,4.10
2023-02-28T14:38:45.172Z,8.15
2023-02-28T14:41:23.050Z,5.00
2023-02-28T14:43:54.959Z,5.25
2023-02-28T14:46:25.551Z,4.25
2023-02-28T14:48:54.349Z,4.85
2023-02-28T14:51:25.252Z,5.18
2023-02-28T14:54:00.012Z,5.60
2023-02-28T14:56:35.194Z,5.00
2023-02-28T14:59:03.931Z,4.80
2023-02-28T15:01:34.491Z,5.45
2023-02-28T15:04:06.187Z,6.38
2023-02-28T15:06:35.247Z,6.22
2023-02-28T15:09:12.164Z,4.13
2023-02-28T15:11:42.374Z,4.45
2023-02-28T15:14:19.016Z,4.82
2023-02-28T15:16:50.915Z,3.45
2023-02-28T15:19:25.188Z,3.72
2023-02-28T15:21:59.797Z,4.20
2023-02-28T15:24:37.278Z,4.45
2023-02-28T15:27:11.754Z,4.65
2023-02-28T15:29:46.997Z,5.28
2023-02-28T15:32:29.451Z,4.10
2023-02-28T15:35:00.138Z,5.75
2023-02-28T15:37:31.982Z,5.15
2023-02-28T15:40:09.851Z,5.03
2023-02-28T15:42:40.131Z,5.18
2023-02-28T15:45:30.068Z,4.60
2023-02-28T15:48:02.589Z,4.95
2023-02-28T15:50:37.308Z,5.60
2023-02-28T15:53:06.053Z,4.15
2023-02-28T15:55:34.579Z,5.47
2023-02-28T15:58:06.169Z,6.38
2023-02-28T16:00:34.824Z,6.78
2023-02-28T16:03:03.658Z,7.68
2023-02-28T16:05:33.343Z,4.43
2023-02-28T16:08:16.519Z,5.78
2023-02-28T16:10:45.835Z,5.82
2023-02-28T16:13:16.906Z,6.13
2023-02-28T16:15:46.257Z,5.07
2023-02-28T16:18:15.338Z,5.63
2023-02-28T16:20:45.658Z,4.60
2023-02-28T16:23:14.255Z,4.57
2023-02-28T16:25:45.617Z,5.50
2023-02-28T16:28:21.452Z,5.00
2023-02-28T16:30:50.126Z,4.65
2023-02-28T16:33:18.809Z,5.90
2023-02-28T16:35:47.436Z,5.05
2023-02-28T16:38:16.030Z,6.03
2023-02-28T16:40:44.867Z,4.35
2023-02-28T16:43:19.997Z,4.85
2023-02-28T16:45:48.714Z,4.97
2023-02-28T16:48:18.285Z,4.53
2023-02-28T16:50:47.004Z,6.57
2023-02-28T16:53:16.002Z,4.50
2023-02-28T16:55:44.749Z,7.63
2023-02-28T16:58:18.233Z,8.10
2023-02-28T17:00:46.845Z,5.20
2023-02-28T17:03:32.657Z,4.45
2023-02-28T17:06:02.183Z,4.85
2023-02-28T17:08:32.847Z,5.63
2023-02-28T17:11:02.639Z,11.35
2023-02-28T17:13:35.393Z,5.30
2023-02-28T17:16:04.487Z,4.63
2023-02-28T17:18:34.855Z,7.32
2023-02-28T17:21:03.485Z,5.40
2023-02-28T17:23:32.080Z,6.10
2023-02-28T17:26:00.706Z,5.55
2023-02-28T17:28:29.338Z,5.75
2023-02-28T17:30:59.270Z,6.50
2023-02-28T17:33:27.803Z,6.95
2023-02-28T17:35:56.351Z,4.15
2023-02-28T17:38:24.988Z,4.68
2023-02-28T17:40:58.088Z,5.88
2023-02-28T17:43:27.338Z,4.68
2023-02-28T17:45:56.517Z,6.50
2023-02-28T17:48:26.676Z,5.57
2023-02-28T17:50:55.408Z,5.53
2023-02-28T17:53:24.426Z,6.43
2023-02-28T17:55:53.068Z,6.78
2023-02-28T17:58:21.648Z,5.78
2023-02-28T18:00:54.687Z,5.65
2023-02-28T18:03:24.707Z,6.50
2023-02-28T18:05:57.819Z,6.85
2023-02-28T18:08:26.862Z,8.05
2023-02-28T18:10:55.700Z,5.35
2023-02-28T18:13:24.287Z,6.00
2023-02-28T18:15:52.899Z,6.72
2023-02-28T18:18:21.616Z,7.43
2023-02-28T18:20:50.826Z,6.65
2023-02-28T18:23:21.617Z,8.48
2023-02-28T18:25:50.247Z,7.38
2023-02-28T18:28:18.814Z,8.18
2023-02-28T18:30:47.476Z,8.32
2023-02-28T18:33:16.154Z,7.88
2023-02-28T18:35:44.819Z,8.35
2023-02-28T18:38:16.055Z,8.48
2023-02-28T18:40:53.903Z,11.38
2023-02-28T18:43:22.624Z,10.38
2023-02-28T18:45:51.256Z,14.38
2023-02-28T18:48:20.075Z,12.90
2023-02-28T18:50:48.717Z,15.48
2023-02-28T18:53:17.782Z,13.23
2023-02-28T18:55:47.875Z,14.32
2023-02-28T18:58:16.593Z,16.13
2023-02-28T19:00:45.246Z,21.30
2023-02-28T19:03:14.455Z,15.23
2023-02-28T19:05:42.993Z,16.75
2023-02-28T19:08:11.526Z,18.50
2023-02-28T19:10:41.077Z,19.73
2023-02-28T19:13:10.991Z,17.63
2023-02-28T19:15:39.640Z,18.15
2023-02-28T19:18:08.255Z,16.45
2023-02-28T19:20:37.472Z,15.02
2023-02-28T19:23:06.227Z,14.55
2023-02-28T19:25:34.817Z,13.77
2023-02-28T19:28:03.471Z,12.50
2023-02-28T19:30:33.341Z,12.63
2023-02-28T19:33:01.929Z,15.45
2023-02-28T19:35:30.627Z,14.55
2023-02-28T19:37:59.933Z,34.65
2023-02-28T19:40:28.576Z,36.05
2023-02-28T19:42:57.088Z,34.35
2023-02-28T19:45:25.838Z,30.63
2023-02-28T19:47:55.780Z,34.25
2023-02-28T19:50:24.416Z,30.75
2023-02-28T19:52:52.980Z,27.13
2023-02-28T19:55:21.568Z,25.70
2023-02-28T19:57:51.375Z,25.42
2023-02-28T20:00:20.593Z,22.30
2023-02-28T20:02:49.189Z,26.65
2023-02-28T20:05:19.514Z,26.27
2023-02-28T20:07:48.621Z,26.20
2023-02-28T20:10:17.317Z,22.55
2023-02-28T20:12:46.098Z,20.83
2023-02-28T20:15:14.642Z,20.52
2023-02-28T20:17:43.190Z,21.08
2023-02-28T20:20:12.727Z,20.07
2023-02-28T20:22:42.637Z,19.35
2023-02-28T20:25:12.075Z,24.10
2023-02-28T20:27:40.665Z,18.67
2023-02-28T20:30:10.924Z,20.75
2023-02-28T20:32:39.839Z,19.90
2023-02-28T20:35:11.596Z,18.50
2023-02-28T20:37:40.568Z,17.10
2023-02-28T20:40:12.076Z,17.47
2023-02-28T20:42:40.590Z,15.60
2023-02-28T20:45:10.490Z,14.23
2023-02-28T20:47:39.078Z,15.88
2023-02-28T20:50:09.172Z,15.75
2023-02-28T20:52:37.897Z,13.93
2023-02-28T20:55:07.902Z,18.23
2023-02-28T20:57:37.964Z,13.67
2023-02-28T21:00:09.455Z,14.23
2023-02-28T21:02:38.459Z,10.80
2023-02-28T21:05:07.489Z,12.77
2023-02-28T21:07:36.132Z,11.73
2023-02-28T21:10:04.896Z,12.60
2023-02-28T21:12:33.520Z,15.40
2023-02-28T21:15:03.422Z,12.47
2023-02-28T21:17:32.084Z,13.63
2023-02-28T21:20:00.638Z,12.00
2023-02-28T21:22:29.178Z,13.93
2023-02-28T21:24:57.721Z,13.97
2023-02-28T21:27:26.180Z,12.17
2023-02-28T21:29:54.682Z,11.73
2023-02-28T21:32:24.688Z,11.27
2023-02-28T21:34:55.085Z,11.87
2023-02-28T21:37:23.741Z,16.23
2023-02-28T21:39:52.503Z,12.93
2023-02-28T21:42:21.064Z,14.73
2023-02-28T21:44:50.285Z,14.37
2023-02-28T21:47:18.932Z,15.37
2023-02-28T21:49:48.841Z,17.97
2023-02-28T21:52:21.762Z,18.53
2023-02-28T21:54:50.321Z,22.17
2023-02-28T21:57:18.796Z,16.70
2023-02-28T21:59:47.447Z,18.57
2023-02-28T22:02:16.088Z,19.50
2023-02-28T22:04:44.664Z,19.53
2023-02-28T22:07:14.496Z,17.83
2023-02-28T22:09:43.527Z,16.30
2023-02-28T22:12:12.083Z,21.13
2023-02-28T22:14:41.695Z,19.53
2023-02-28T22:17:10.260Z,21.17
2023-02-28T22:19:38.780Z,18.57
2023-02-28T22:22:07.306Z,19.07
2023-02-28T22:24:37.157Z,18.57
2023-02-28T22:27:06.801Z,15.13
2023-02-28T22:29:35.320Z,15.10
2023-02-28T22:32:03.904Z,16.43
2023-02-28T22:34:32.499Z,14.57
2023-02-28T22:37:01.002Z,15.33
2023-02-28T22:39:29.591Z,13.87
2023-02-28T22:41:59.453Z,13.60
2023-02-28T22:44:29.489Z,13.70
2023-02-28T22:46:58.246Z,12.67
2023-02-28T22:49:26.867Z,13.43
2023-02-28T22:51:55.462Z,15.13
2023-02-28T22:54:24.165Z,15.20
2023-02-28T22:56:52.740Z,17.23
2023-02-28T22:59:43.226Z,15.17
2023-02-28T23:02:13.473Z,15.63
2023-02-28T23:04:47.380Z,17.13
2023-02-28T23:07:17.140Z,17.20
2023-02-28T23:09:46.153Z,17.87
2023-02-28T23:12:18.048Z,18.20
2023-02-28T23:14:49.427Z,17.17
2023-02-28T23:17:18.787Z,18.60
2023-02-28T23:19:47.746Z,15.80
2023-02-28T23:22:17.808Z,18.20
2023-02-28T23:24:48.128Z,17.13
2023-02-28T23:27:18.929Z,17.50
2023-02-28T23:29:54.124Z,12.77
2023-02-28T23:32:27.859Z,14.77
2023-02-28T23:35:34.181Z,13.20
2023-02-28T23:38:03.111Z,16.87
2023-02-28T23:40:32.356Z,13.80
2023-02-28T23:43:02.721Z,12.70
2023-02-28T23:45:33.241Z,12.53
2023-02-28T23:48:03.537Z,11.77
2023-02-28T23:50:32.724Z,12.87
2023-02-28T23:53:01.896Z,12.50
2023-02-28T23:55:30.793Z,16.27
2023-02-28T23:57:59.752Z,13.13
